createdAt,value
2023-04-16T00:01:26.480Z,60555.94
2023-04-16T00:03:55.910Z,60555.00
2023-04-16T00:06:24.558Z,60552.13
2023-04-16T00:08:54.276Z,60554.69
2023-04-16T00:11:23.639Z,60551.19
2023-04-16T00:13:52.012Z,60558.34
2023-04-16T00:16:20.625Z,60559.84
2023-04-16T00:18:48.944Z,60556.34
2023-04-16T00:21:17.267Z,60558.91
2023-04-16T00:23:45.912Z,60562.56
2023-04-16T00:26:16.095Z,60553.22
2023-04-16T00:28:44.406Z,60554.69
2023-04-16T00:31:12.800Z,60553.63
2023-04-16T00:33:41.241Z,60553.63
2023-04-16T00:36:10.687Z,60552.13
2023-04-16T00:38:39.033Z,60549.03
2023-04-16T00:41:07.374Z,60549.56
2023-04-16T00:43:37.091Z,60555.78
2023-04-16T00:46:07.753Z,60550.63
2023-04-16T00:48:37.520Z,60553.22
2023-04-16T00:51:06.722Z,60556.34
2023-04-16T00:53:35.798Z,60554.69
2023-04-16T00:56:05.215Z,60553.63
2023-04-16T00:58:35.017Z,60556.19
2023-04-16T01:01:04.916Z,60552.53
2023-04-16T01:03:39.632Z,60549.97
2023-04-16T01:06:08.616Z,60552.53
2023-04-16T01:08:37.039Z,60549.81
2023-04-16T01:11:05.642Z,60550.91
2023-04-16T01:13:34.522Z,60552.53
2023-04-16T01:16:04.563Z,60545.75
2023-04-16T01:18:32.942Z,60551.59
2023-04-16T01:21:02.876Z,60546.31
2023-04-16T01:23:31.470Z,60552.53
2023-04-16T01:25:59.976Z,60553.63
2023-04-16T01:28:28.388Z,60557.69
2023-04-16T01:30:56.787Z,60553.63
2023-04-16T01:33:25.230Z,60548.47
2023-04-16T01:35:53.610Z,60552.53
2023-04-16T01:38:23.427Z,60551.44
2023-04-16T01:40:51.794Z,60549.97
2023-04-16T01:43:20.281Z,60549.81
2023-04-16T01:45:48.614Z,60547.78
2023-04-16T01:48:17.110Z,60545.63
2023-04-16T01:50:45.554Z,60548.19
2023-04-16T01:53:13.857Z,60549.25
2023-04-16T01:55:43.569Z,60548.19
2023-04-16T01:58:14.719Z,60545.06
2023-04-16T02:00:43.073Z,60546.56
2023-04-16T02:03:11.811Z,60549.66
2023-04-16T02:05:40.275Z,60546.03
2023-04-16T02:08:08.615Z,60544.53
2023-04-16T02:10:37.008Z,60540.88
2023-04-16T02:13:06.731Z,60543.44
2023-04-16T02:15:35.235Z,60540.88
2023-04-16T02:18:03.606Z,60542.50
2023-04-16T02:20:31.946Z,60545.06
2023-04-16T02:23:00.490Z,60542.34
2023-04-16T02:25:28.989Z,60544.91
2023-04-16T02:27:57.327Z,60543.31
2023-04-16T02:30:27.167Z,60541.25
2023-04-16T02:32:55.517Z,60541.66
2023-04-16T02:35:23.901Z,60541.66
2023-04-16T02:37:52.269Z,60540.59
2023-04-16T02:40:21.021Z,60540.97
2023-04-16T02:42:49.369Z,60535.97
2023-04-16T02:45:17.802Z,60532.19
2023-04-16T02:47:47.520Z,60532.97
2023-04-16T02:50:16.037Z,60531.88
2023-04-16T02:52:44.450Z,60531.88
2023-04-16T02:55:13.307Z,60527.69
2023-04-16T02:57:42.452Z,60531.06
2023-04-16T03:00:11.742Z,60522.81
2023-04-16T03:02:40.741Z,60521.03
2023-04-16T03:05:11.776Z,60519.94
2023-04-16T03:07:40.837Z,60519.53
2023-04-16T03:10:10.059Z,60516.81
2023-04-16T03:12:39.175Z,60511.69
2023-04-16T03:15:08.427Z,60516.69
2023-04-16T03:17:37.002Z,60513.03
2023-04-16T03:20:06.525Z,60514.50
2023-04-16T03:22:36.485Z,60514.50
2023-04-16T03:25:05.284Z,60512.34
2023-04-16T03:27:33.951Z,60512.34
2023-04-16T03:30:02.563Z,60509.09
2023-04-16T03:32:30.926Z,60505.84
2023-04-16T03:34:59.314Z,60504.75
2023-04-16T03:37:27.676Z,60503.13
2023-04-16T03:39:57.397Z,60498.38
2023-04-16T03:42:25.932Z,60500.56
2023-04-16T03:44:54.626Z,60498.91
2023-04-16T03:47:23.090Z,60500.41
2023-04-16T03:49:51.822Z,60493.06
2023-04-16T03:52:20.169Z,60492.38
2023-04-16T03:54:48.505Z,60491.69
2023-04-16T03:57:18.254Z,60486.81
2023-04-16T03:59:47.039Z,60487.34
2023-04-16T04:02:15.477Z,60483.69
2023-04-16T04:04:44.062Z,60484.78
2023-04-16T04:07:12.496Z,60489.91
2023-04-16T04:09:40.855Z,60486.81
2023-04-16T04:12:09.986Z,60491.41
2023-04-16T04:14:40.104Z,60486.25
2023-04-16T04:17:09.396Z,60479.50
2023-04-16T04:19:40.280Z,60483.53
2023-04-16T04:22:10.946Z,60484.63
2023-04-16T04:24:39.287Z,60482.63
2023-04-16T04:27:07.601Z,60483.03
2023-04-16T04:29:36.016Z,60481.91
2023-04-16T04:32:06.290Z,60481.78
2023-04-16T04:34:34.636Z,60482.47
2023-04-16T04:37:02.994Z,60481.91
2023-04-16T04:39:31.759Z,60478.28
2023-04-16T04:42:00.191Z,60481.38
2023-04-16T04:44:28.509Z,60480.44
2023-04-16T04:46:56.815Z,60479.91
2023-04-16T04:49:26.569Z,60475.69
2023-04-16T04:51:54.903Z,60478.28
2023-04-16T04:54:23.293Z,60471.50
2023-04-16T04:56:52.539Z,60478.28
2023-04-16T04:59:21.611Z,60478.66
2023-04-16T05:01:50.386Z,60476.09
2023-04-16T05:04:19.321Z,60470.81
2023-04-16T05:06:49.334Z,60477.59
2023-04-16T05:09:17.742Z,60470.41
2023-04-16T05:11:46.254Z,60478.13
2023-04-16T05:14:14.686Z,60480.16
2023-04-16T05:16:43.082Z,60479.06
2023-04-16T05:19:11.620Z,60475.41
2023-04-16T05:21:40.277Z,60470.81
2023-04-16T05:24:10.013Z,60476.50
2023-04-16T05:26:38.371Z,60474.72
2023-04-16T05:29:06.774Z,60472.16
2023-04-16T05:31:35.311Z,60473.25
2023-04-16T05:34:03.622Z,60467.03
2023-04-16T05:36:31.952Z,60472.53
2023-04-16T05:39:00.308Z,60462.69
2023-04-16T05:41:30.028Z,60467.81
2023-04-16T05:43:58.425Z,60466.72
2023-04-16T05:46:26.903Z,60468.34
2023-04-16T05:48:55.697Z,60467.25
2023-04-16T05:51:26.061Z,60467.81
2023-04-16T05:53:54.394Z,60468.91
2023-04-16T05:56:23.392Z,60463.75
2023-04-16T05:58:53.086Z,60471.06
2023-04-16T06:01:22.270Z,60469.44
2023-04-16T06:03:50.991Z,60467.03
2023-04-16T06:06:19.406Z,60470.53
2023-04-16T06:08:47.824Z,60467.41
2023-04-16T06:11:16.243Z,60473.09
2023-04-16T06:13:44.610Z,60469.97
2023-04-16T06:16:14.563Z,60466.19
2023-04-16T06:18:42.906Z,60466.31
2023-04-16T06:21:11.353Z,60464.84
2023-04-16T06:23:39.852Z,60466.63
2023-04-16T06:26:08.196Z,60474.88
2023-04-16T06:28:36.525Z,60472.44
2023-04-16T06:31:05.722Z,60476.09
2023-04-16T06:33:35.493Z,60476.50
2023-04-16T06:36:03.832Z,60475.03
2023-04-16T06:38:32.165Z,60479.34
2023-04-16T06:41:00.707Z,60488.16
2023-04-16T06:43:29.868Z,60483.31
2023-04-16T06:45:58.206Z,60480.75
2023-04-16T06:48:26.602Z,60490.06
2023-04-16T06:50:56.690Z,60492.25
2023-04-16T06:53:25.328Z,60493.31
2023-04-16T06:55:53.700Z,60487.09
2023-04-16T06:58:22.370Z,60490.22
2023-04-16T07:00:50.901Z,60493.31
2023-04-16T07:03:19.572Z,60490.91
2023-04-16T07:05:48.079Z,60493.84
2023-04-16T07:08:17.900Z,60496.03
2023-04-16T07:10:46.222Z,60491.97
2023-04-16T07:13:14.986Z,60497.66
2023-04-16T07:15:43.422Z,60500.41
2023-04-16T07:18:11.817Z,60496.88
2023-04-16T07:20:40.212Z,60503.13
2023-04-16T07:23:08.677Z,60502.56
2023-04-16T07:25:38.568Z,60500.94
2023-04-16T07:28:06.961Z,60496.75
2023-04-16T07:30:35.837Z,60500.94
2023-04-16T07:33:04.808Z,60492.53
2023-04-16T07:35:33.592Z,60499.31
2023-04-16T07:38:02.031Z,60504.06
2023-04-16T07:40:30.755Z,60501.63
2023-04-16T07:43:00.553Z,60501.22
2023-04-16T07:45:28.923Z,60506.91
2023-04-16T07:47:57.668Z,60511.50
2023-04-16T07:50:26.235Z,60501.78
2023-04-16T07:52:54.704Z,60506.50
2023-04-16T07:55:23.335Z,60507.22
2023-04-16T07:57:52.276Z,60505.03
2023-04-16T08:00:22.196Z,60513.44
2023-04-16T08:02:51.221Z,60506.91
2023-04-16T08:05:19.723Z,60507.22
2023-04-16T08:07:48.180Z,60502.88
2023-04-16T08:10:16.746Z,60507.59
2023-04-16T08:12:45.195Z,60504.88
2023-04-16T08:15:13.673Z,60506.38
2023-04-16T08:17:43.426Z,60504.19
2023-04-16T08:20:15.758Z,60501.63
2023-04-16T08:22:46.232Z,60504.75
2023-04-16T08:25:15.002Z,60509.88
2023-04-16T08:27:43.338Z,60503.81
2023-04-16T08:30:12.372Z,60506.91
2023-04-16T08:32:40.881Z,60512.34
2023-04-16T08:35:11.115Z,60511.28
2023-04-16T08:37:39.773Z,60505.44
2023-04-16T08:40:09.596Z,60508.41
2023-04-16T08:42:45.665Z,60506.50
2023-04-16T08:45:16.067Z,60508.56
2023-04-16T08:47:47.932Z,60505.44
2023-04-16T08:50:23.442Z,60511.28
2023-04-16T08:52:53.933Z,60512.34
2023-04-16T08:55:27.329Z,60513.56
2023-04-16T08:57:59.652Z,60514.13
2023-04-16T09:00:29.526Z,60511.00
2023-04-16T09:02:58.131Z,60519.94
2023-04-16T09:05:30.348Z,60511.56
2023-04-16T09:07:58.744Z,60516.69
2023-04-16T09:10:28.166Z,60515.06
2023-04-16T09:12:57.333Z,60513.44
2023-04-16T09:15:26.584Z,60514.91
2023-04-16T09:17:56.546Z,60516.00
2023-04-16T09:20:25.327Z,60515.22
2023-04-16T09:22:57.004Z,60520.50
2023-04-16T09:25:26.320Z,60525.38
2023-04-16T09:27:54.706Z,60533.38
2023-04-16T09:30:24.888Z,60529.47
2023-04-16T09:33:02.151Z,60535.16
2023-04-16T09:35:46.743Z,60535.44
2023-04-16T09:38:17.119Z,60547.50
2023-04-16T09:40:47.683Z,60546.03
2023-04-16T09:43:17.983Z,60546.31
2023-04-16T09:45:51.050Z,60546.31
2023-04-16T09:48:29.997Z,60552.53
2023-04-16T09:50:59.294Z,60551.75
2023-04-16T09:53:30.307Z,60551.44
2023-04-16T09:55:59.232Z,60548.88
2023-04-16T09:58:28.591Z,60547.94
2023-04-16T10:00:57.660Z,60553.22
2023-04-16T10:03:32.961Z,60557.97
2023-04-16T10:06:03.055Z,60558.50
2023-04-16T10:08:32.816Z,60559.34
2023-04-16T10:11:01.742Z,60564.38
2023-04-16T10:13:31.244Z,60568.44
2023-04-16T10:16:00.154Z,60570.22
2023-04-16T10:18:29.991Z,60574.94
2023-04-16T10:20:59.873Z,60571.16
2023-04-16T10:23:28.611Z,60575.09
2023-04-16T10:25:59.833Z,60580.78
2023-04-16T10:28:29.456Z,60578.59
2023-04-16T10:30:59.341Z,60579.28
2023-04-16T10:33:30.421Z,60582.94
2023-04-16T10:36:12.976Z,60579.44
2023-04-16T10:38:42.837Z,60588.00
2023-04-16T10:41:12.691Z,60595.97
2023-04-16T10:43:42.432Z,60593.41
2023-04-16T10:46:22.112Z,60596.13
2023-04-16T10:48:51.712Z,60596.28
2023-04-16T10:51:28.854Z,60600.63
2023-04-16T10:53:58.290Z,60601.56
2023-04-16T10:56:29.092Z,60609.03
2023-04-16T10:58:57.479Z,60602.81
2023-04-16T11:01:36.535Z,60611.19
2023-04-16T11:04:30.606Z,60603.88
2023-04-16T11:07:05.520Z,60606.47
2023-04-16T11:09:54.729Z,60613.38
2023-04-16T11:12:27.263Z,60611.50
2023-04-16T11:14:59.158Z,60615.28
2023-04-16T11:17:30.777Z,60626.28
2023-04-16T11:19:59.322Z,60627.09
2023-04-16T11:22:28.381Z,60632.16
2023-04-16T11:24:57.571Z,60644.91
2023-04-16T11:27:27.457Z,60649.94
2023-04-16T11:30:00.293Z,60664.34
2023-04-16T11:32:28.797Z,60659.34
2023-04-16T11:34:57.166Z,60660.81
2023-04-16T11:37:34.288Z,60658.63
2023-04-16T11:40:04.828Z,60655.50
2023-04-16T11:42:37.227Z,60657.16
2023-04-16T11:45:06.373Z,60654.97
2023-04-16T11:47:46.866Z,60655.38
2023-04-16T11:50:20.128Z,60660.53
2023-04-16T11:52:49.263Z,60658.50
2023-04-16T11:55:18.178Z,60657.56
2023-04-16T11:57:48.549Z,60661.91
2023-04-16T12:00:17.498Z,60658.38
2023-04-16T12:02:47.402Z,60667.75
2023-04-16T12:05:30.771Z,60667.88
2023-04-16T12:08:00.993Z,60668.03
2023-04-16T12:10:30.308Z,60681.75
2023-04-16T12:13:13.631Z,60680.25
2023-04-16T12:15:46.780Z,60683.34
2023-04-16T12:18:16.272Z,60665.03
2023-04-16T12:20:45.587Z,60666.25
2023-04-16T12:23:24.691Z,60663.00
2023-04-16T12:25:53.374Z,60656.06
2023-04-16T12:28:31.926Z,60652.78
2023-04-16T12:31:01.091Z,60653.91
2023-04-16T12:33:30.236Z,60655.22
2023-04-16T12:35:58.717Z,60655.22
2023-04-16T12:38:27.640Z,60647.34
2023-04-16T12:40:57.839Z,60643.16
2023-04-16T12:43:26.569Z,60639.75
2023-04-16T12:45:56.582Z,60643.81
2023-04-16T12:48:25.023Z,60638.38
2023-04-16T12:50:55.301Z,60638.94
2023-04-16T12:53:23.962Z,60628.88
2023-04-16T12:55:52.659Z,60628.22
2023-04-16T12:58:21.026Z,60623.44
2023-04-16T13:00:49.502Z,60620.19
2023-04-16T13:03:20.982Z,60615.84
2023-04-16T13:05:49.770Z,60617.19
2023-04-16T13:08:18.274Z,60621.78
2023-04-16T13:10:46.677Z,60603.09
2023-04-16T13:13:16.445Z,60601.41
2023-04-16T13:15:44.922Z,60592.47
2023-04-16T13:18:13.517Z,60591.66
2023-04-16T13:20:43.809Z,60587.03
2023-04-16T13:23:12.410Z,60587.84
2023-04-16T13:25:40.912Z,60587.31
2023-04-16T13:28:09.366Z,60585.28
2023-04-16T13:30:38.121Z,60592.72
2023-04-16T13:33:06.623Z,60590.31
2023-04-16T13:35:35.135Z,60597.75
2023-04-16T13:38:05.975Z,60599.94
2023-04-16T13:40:34.683Z,60600.63
2023-04-16T13:43:03.537Z,60609.03
2023-04-16T13:45:32.577Z,60611.19
2023-04-16T13:48:01.372Z,60618.13
2023-04-16T13:50:29.984Z,60622.06
2023-04-16T13:52:58.377Z,60619.09
2023-04-16T13:55:28.137Z,60626.44
2023-04-16T13:57:57.056Z,60631.72
2023-04-16T14:00:27.250Z,60631.47
2023-04-16T14:02:55.894Z,60631.75
2023-04-16T14:05:26.608Z,60639.75
2023-04-16T14:07:55.659Z,60654.69
2023-04-16T14:10:24.034Z,60657.56
2023-04-16T14:12:53.807Z,60658.78
2023-04-16T14:15:22.201Z,60669.53
2023-04-16T14:17:50.876Z,60668.03
2023-04-16T14:20:19.264Z,60676.44
2023-04-16T14:22:47.735Z,60675.63
2023-04-16T14:25:16.165Z,60677.81
2023-04-16T14:27:44.547Z,60684.06
2023-04-16T14:30:14.752Z,60674.00
2023-04-16T14:32:43.329Z,60678.63
2023-04-16T14:35:11.802Z,60673.06
2023-04-16T14:37:40.816Z,60676.03
2023-04-16T14:40:10.866Z,60673.47
2023-04-16T14:42:41.965Z,60673.47
2023-04-16T14:45:11.033Z,60662.31
2023-04-16T14:47:46.217Z,60665.16
2023-04-16T14:50:20.991Z,60660.41
2023-04-16T14:52:53.786Z,60653.91
2023-04-16T14:55:27.717Z,60655.78
2023-04-16T14:57:59.740Z,60648.31
2023-04-16T15:00:28.616Z,60637.59
2023-04-16T15:02:59.463Z,60629.44
2023-04-16T15:05:27.905Z,60621.28
2023-04-16T15:07:56.291Z,60621.94
2023-04-16T15:10:24.779Z,60613.91
2023-04-16T15:12:53.188Z,60607.53
2023-04-16T15:15:21.579Z,60602.53
2023-04-16T15:17:51.026Z,60594.50
2023-04-16T15:20:21.088Z,60589.06
2023-04-16T15:22:49.448Z,60582.16
2023-04-16T15:25:18.002Z,60579.84
2023-04-16T15:27:46.339Z,60582.41
2023-04-16T15:30:15.695Z,60579.28
2023-04-16T15:32:45.061Z,60575.63
2023-04-16T15:35:15.544Z,60581.72
2023-04-16T15:37:45.412Z,60575.63
2023-04-16T15:40:15.902Z,60576.72
2023-04-16T15:42:44.646Z,60581.31
2023-04-16T15:45:13.124Z,60580.78
2023-04-16T15:47:42.014Z,60576.16
2023-04-16T15:50:11.000Z,60582.41
2023-04-16T15:52:42.490Z,60580.38
2023-04-16T15:55:12.398Z,60582.56
2023-04-16T15:57:41.132Z,60580.00
2023-04-16T16:00:14.174Z,60585.13
2023-04-16T16:02:44.116Z,60585.13
2023-04-16T16:05:14.244Z,60586.22
2023-04-16T16:07:43.256Z,60589.88
2023-04-16T16:10:16.025Z,60581.59
2023-04-16T16:12:46.444Z,60590.00
2023-04-16T16:15:14.955Z,60584.72
2023-04-16T16:17:43.602Z,60582.56
2023-04-16T16:20:12.887Z,60583.66
2023-04-16T16:22:43.124Z,60579.44
2023-04-16T16:25:12.929Z,60581.47
2023-04-16T16:27:42.106Z,60576.72
2023-04-16T16:30:11.548Z,60573.44
2023-04-16T16:32:43.026Z,60576.44
2023-04-16T16:35:13.992Z,60568.16
2023-04-16T16:37:42.433Z,60574.78
2023-04-16T16:40:11.690Z,60575.34
2023-04-16T16:42:56.276Z,60574.25
2023-04-16T16:45:34.919Z,60573.16
2023-04-16T16:48:04.321Z,60569.50
2023-04-16T16:50:33.254Z,60566.41
2023-04-16T16:53:01.950Z,60568.84
2023-04-16T16:55:30.346Z,60571.53
2023-04-16T16:58:00.261Z,60563.69
2023-04-16T17:00:28.712Z,60568.69
2023-04-16T17:02:57.621Z,60557.56
2023-04-16T17:05:26.246Z,60558.66
2023-04-16T17:07:54.729Z,60559.06
2023-04-16T17:10:23.761Z,60547.00
2023-04-16T17:12:56.724Z,60546.31
2023-04-16T17:15:26.922Z,60548.19
2023-04-16T17:17:55.277Z,60539.78
2023-04-16T17:20:24.124Z,60537.31
2023-04-16T17:22:52.694Z,60526.75
2023-04-16T17:25:21.330Z,60530.81
2023-04-16T17:27:51.542Z,60527.53
2023-04-16T17:30:20.194Z,60526.47
2023-04-16T17:32:50.681Z,60521.03
2023-04-16T17:35:19.106Z,60520.09
2023-04-16T17:37:47.502Z,60521.03
2023-04-16T17:40:18.196Z,60518.88
2023-04-16T17:42:47.152Z,60517.22
2023-04-16T17:45:15.716Z,60514.50
2023-04-16T17:47:44.592Z,60511.94
2023-04-16T17:50:14.636Z,60512.34
2023-04-16T17:52:47.330Z,60512.34
2023-04-16T17:55:16.652Z,60509.09
2023-04-16T17:57:45.766Z,60506.91
2023-04-16T18:00:16.152Z,60504.75
2023-04-16T18:02:45.479Z,60505.84
2023-04-16T18:05:15.498Z,60506.38
2023-04-16T18:07:48.285Z,60504.34
2023-04-16T18:10:16.714Z,60502.56
2023-04-16T18:12:45.114Z,60495.94
2023-04-16T18:15:13.465Z,60500.94
2023-04-16T18:17:44.316Z,60501.31
2023-04-16T18:20:16.738Z,60501.50
2023-04-16T18:22:46.556Z,60501.50
2023-04-16T18:25:16.085Z,60499.31
2023-04-16T18:27:44.811Z,60502.56
2023-04-16T18:30:20.164Z,60500.94
2023-04-16T18:33:09.957Z,60494.56
2023-04-16T18:35:42.314Z,60490.22
2023-04-16T18:38:14.597Z,60490.22
2023-04-16T18:40:43.108Z,60491.16
2023-04-16T18:43:11.506Z,60485.47
2023-04-16T18:45:40.034Z,60484.78
2023-04-16T18:48:08.626Z,60480.03
2023-04-16T18:50:36.996Z,60479.50
2023-04-16T18:53:05.360Z,60483.53
2023-04-16T18:55:35.305Z,60471.66
2023-04-16T18:58:07.952Z,60477.19
2023-04-16T19:00:36.408Z,60478.13
2023-04-16T19:03:15.133Z,60471.34
2023-04-16T19:05:43.765Z,60471.34
2023-04-16T19:08:12.293Z,60472.84
2023-04-16T19:10:42.044Z,60474.31
2023-04-16T19:13:10.540Z,60469.19
2023-04-16T19:15:38.942Z,60476.50
2023-04-16T19:18:10.210Z,60474.31
2023-04-16T19:20:39.630Z,60472.31
2023-04-16T19:23:19.552Z,60473.78
2023-04-16T19:26:04.135Z,60477.97
2023-04-16T19:29:38.628Z,60462.94
2023-04-16T19:32:25.542Z,60464.84
2023-04-16T19:34:55.241Z,60464.84
2023-04-16T19:37:27.270Z,60461.19
2023-04-16T19:40:47.517Z,60465.25
2023-04-16T19:44:00.716Z,60452.66
2023-04-16T19:46:52.278Z,60459.41
2023-04-16T19:49:20.631Z,60460.75
2023-04-16T19:51:49.547Z,60455.09
2023-04-16T19:54:17.907Z,60450.75
2023-04-16T19:56:46.238Z,60457.38
2023-04-16T19:59:15.990Z,60452.63
2023-04-16T20:01:44.675Z,60453.31
2023-04-16T20:04:16.506Z,60453.00
2023-04-16T20:06:44.851Z,60450.97
2023-04-16T20:09:13.422Z,60449.50
2023-04-16T20:11:41.871Z,60443.53
2023-04-16T20:14:10.653Z,60436.63
2023-04-16T20:16:40.919Z,60435.81
2023-04-16T20:19:09.536Z,60432.00
2023-04-16T20:21:37.979Z,60432.94
2023-04-16T20:24:10.609Z,60422.53
2023-04-16T20:26:38.986Z,60422.91
2023-04-16T20:29:07.344Z,60426.03
2023-04-16T20:31:38.323Z,60424.94
2023-04-16T20:34:23.915Z,60421.44
2023-04-16T20:36:52.693Z,60422.25
2023-04-16T20:39:22.428Z,60421.84
2023-04-16T20:41:57.042Z,60421.16
2023-04-16T20:44:26.444Z,60422.63
2023-04-16T20:46:56.988Z,60409.78
2023-04-16T20:49:26.869Z,60412.75
2023-04-16T20:51:55.431Z,60409.53
2023-04-16T20:54:24.770Z,60410.31
2023-04-16T20:56:53.266Z,60410.31
2023-04-16T20:59:21.591Z,60408.69
2023-04-16T21:01:50.133Z,60407.03
2023-04-16T21:04:18.846Z,60405.97
2023-04-16T21:06:49.152Z,60402.69
2023-04-16T21:09:17.526Z,60402.16
2023-04-16T21:11:46.070Z,60402.69
2023-04-16T21:14:14.473Z,60399.47
2023-04-16T21:16:42.815Z,60394.72
2023-04-16T21:19:11.592Z,60395.66
2023-04-16T21:21:41.757Z,60394.03
2023-04-16T21:24:11.582Z,60390.25
2023-04-16T21:26:40.114Z,60385.50
2023-04-16T21:29:08.425Z,60389.00
2023-04-16T21:31:36.875Z,60384.25
2023-04-16T21:34:05.386Z,60380.63
2023-04-16T21:36:34.106Z,60377.34
2023-04-16T21:39:02.651Z,60378.84
2023-04-16T21:41:32.385Z,60363.31
2023-04-16T21:44:00.989Z,60372.88
2023-04-16T21:46:29.358Z,60370.84
2023-04-16T21:48:57.890Z,60369.06
2023-04-16T21:51:29.852Z,60368.00
2023-04-16T21:53:58.849Z,60366.91
2023-04-16T21:56:27.319Z,60359.84
2023-04-16T21:58:56.987Z,60352.56
2023-04-16T22:01:25.587Z,60352.97
2023-04-16T22:03:54.348Z,60350.78
2023-04-16T22:06:23.265Z,60351.19
2023-04-16T22:08:51.599Z,60352.28
2023-04-16T22:11:20.131Z,60350.13
2023-04-16T22:13:49.419Z,60344.44
2023-04-16T22:16:19.245Z,60346.31
2023-04-16T22:18:47.915Z,60346.72
2023-04-16T22:21:16.258Z,60339.41
2023-04-16T22:23:46.351Z,60339.41
2023-04-16T22:26:14.856Z,60339.81
2023-04-16T22:28:43.279Z,60339.81
2023-04-16T22:31:11.642Z,60336.56
2023-04-16T22:33:41.537Z,60337.09
2023-04-16T22:36:10.351Z,60334.38
2023-04-16T22:38:38.929Z,60328.59
2023-04-16T22:41:07.351Z,60331.00
2023-04-16T22:43:37.105Z,60326.81
2023-04-16T22:46:07.938Z,60325.56
2023-04-16T22:48:38.747Z,60324.63
2023-04-16T22:51:09.541Z,60321.94
2023-04-16T22:53:38.167Z,60320.84
2023-04-16T22:56:07.217Z,60319.22
2023-04-16T22:58:35.598Z,60321.38
2023-04-16T23:01:03.976Z,60318.81
2023-04-16T23:03:32.652Z,60319.59
2023-04-16T23:06:01.057Z,60318.66
2023-04-16T23:08:30.895Z,60315.97
2023-04-16T23:10:59.244Z,60310.84
2023-04-16T23:13:27.600Z,60314.88
2023-04-16T23:15:56.038Z,60313.25
2023-04-16T23:18:24.528Z,60313.81
2023-04-16T23:20:53.231Z,60311.63
2023-04-16T23:23:21.598Z,60313.81
2023-04-16T23:25:53.191Z,60313.09
2023-04-16T23:28:21.993Z,60313.81
2023-04-16T23:30:52.554Z,60310.16
2023-04-16T23:33:20.894Z,60310.16
2023-04-16T23:35:49.281Z,60318.91
2023-04-16T23:38:17.602Z,60312.88
2023-04-16T23:40:45.945Z,60322.16
2023-04-16T23:43:15.758Z,60315.97
2023-04-16T23:45:44.179Z,60309.06
2023-04-16T23:48:12.556Z,60314.88
2023-04-16T23:50:41.053Z,60310.53
2023-04-16T23:53:09.411Z,60310.69
2023-04-16T23:55:37.884Z,60311.63
2023-04-16T23:58:06.229Z,60307.59
